createdAt,value
2023-01-13T00:01:44.374Z,3.53
2023-01-13T00:04:29.828Z,3.33
2023-01-13T00:07:15.833Z,3.20
2023-01-13T00:10:01.233Z,3.60
2023-01-13T00:12:46.860Z,3.53
2023-01-13T00:15:33.782Z,3.97
2023-01-13T00:18:19.620Z,3.97
2023-01-13T00:21:21.847Z,3.38
2023-01-13T00:24:07.368Z,3.28
2023-01-13T00:26:57.663Z,3.90
2023-01-13T00:29:43.351Z,3.40
2023-01-13T00:32:28.934Z,3.63
2023-01-13T00:35:14.509Z,3.55
2023-01-13T00:38:00.216Z,3.72
2023-01-13T00:40:59.614Z,3.47
2023-01-13T00:43:46.396Z,3.92
2023-01-13T00:46:32.067Z,3.60
2023-01-13T00:49:17.914Z,4.43
2023-01-13T00:52:11.782Z,4.13
2023-01-13T00:54:57.420Z,3.92
2023-01-13T00:57:43.554Z,3.70
2023-01-13T01:00:35.653Z,3.58
2023-01-13T01:03:21.461Z,4.00
2023-01-13T01:06:15.755Z,3.42
2023-01-13T01:09:01.496Z,3.85
2023-01-13T01:11:47.439Z,3.85
2023-01-13T01:14:32.768Z,4.15
2023-01-13T01:17:20.329Z,3.90
2023-01-13T01:20:06.341Z,3.22
2023-01-13T01:22:51.825Z,4.18
2023-01-13T01:25:37.261Z,3.53
2023-01-13T01:28:23.149Z,3.42
2023-01-13T01:31:28.362Z,2.95
2023-01-13T01:34:14.191Z,3.28
2023-01-13T01:36:59.696Z,3.17
2023-01-13T01:39:45.150Z,3.00
2023-01-13T01:42:48.980Z,3.13
2023-01-13T01:45:35.029Z,2.42
2023-01-13T01:48:21.213Z,3.25
2023-01-13T01:51:12.748Z,2.72
2023-01-13T01:54:00.276Z,3.03
2023-01-13T01:56:47.348Z,2.92
2023-01-13T01:59:33.730Z,2.33
2023-01-13T02:02:19.790Z,2.65
2023-01-13T02:05:06.677Z,2.55
2023-01-13T02:07:56.195Z,2.28
2023-01-13T02:10:45.797Z,2.75
2023-01-13T02:13:31.406Z,2.72
2023-01-13T02:16:24.434Z,2.50
2023-01-13T02:19:39.265Z,3.17
2023-01-13T02:23:00.567Z,2.70
2023-01-13T02:26:07.091Z,3.13
2023-01-13T02:29:31.190Z,2.50
2023-01-13T02:32:45.279Z,2.88
2023-01-13T02:35:52.043Z,2.60
2023-01-13T02:38:56.704Z,2.95
2023-01-13T02:43:12.411Z,2.30
2023-01-13T02:46:08.999Z,2.47
2023-01-13T02:48:58.106Z,2.67
2023-01-13T02:52:08.867Z,2.60
2023-01-13T02:55:34.597Z,2.97
2023-01-13T02:58:27.988Z,2.45
2023-01-13T03:01:13.877Z,2.78
2023-01-13T03:03:59.645Z,2.70
2023-01-13T03:06:46.721Z,2.20
2023-01-13T03:09:48.459Z,2.47
2023-01-13T03:13:20.863Z,2.75
2023-01-13T03:16:56.605Z,2.47
2023-01-13T03:20:20.640Z,2.70
2023-01-13T03:23:30.204Z,2.20
2023-01-13T03:26:52.766Z,2.13
2023-01-13T03:29:58.143Z,2.13
2023-01-13T03:32:52.276Z,2.28
2023-01-13T03:35:44.329Z,2.42
2023-01-13T03:38:54.793Z,2.10
2023-01-13T03:41:57.416Z,2.60
2023-01-13T03:44:59.380Z,1.95
2023-01-13T03:47:56.370Z,2.38
2023-01-13T03:50:50.261Z,1.88
2023-01-13T03:54:05.414Z,2.30
2023-01-13T03:57:04.921Z,2.35
2023-01-13T03:59:56.025Z,2.20
2023-01-13T04:02:53.410Z,1.77
2023-01-13T04:05:46.991Z,2.03
2023-01-13T04:08:37.151Z,2.15
2023-01-13T04:11:38.808Z,2.00
2023-01-13T04:14:26.944Z,2.15
2023-01-13T04:17:12.760Z,2.13
2023-01-13T04:19:58.640Z,1.98
2023-01-13T04:22:44.080Z,1.95
2023-01-13T04:25:29.617Z,1.77
2023-01-13T04:28:16.038Z,1.88
2023-01-13T04:31:01.723Z,2.30
2023-01-13T04:33:47.728Z,2.05
2023-01-13T04:36:33.561Z,2.30
2023-01-13T04:39:19.445Z,2.30
2023-01-13T04:42:05.016Z,3.00
2023-01-13T04:44:50.489Z,2.20
2023-01-13T04:47:36.613Z,2.70
2023-01-13T04:50:22.794Z,2.38
2023-01-13T04:53:08.539Z,2.17
2023-01-13T04:55:53.917Z,2.50
2023-01-13T04:58:39.278Z,2.05
2023-01-13T05:01:24.851Z,2.30
2023-01-13T05:04:10.708Z,2.40
2023-01-13T05:06:56.350Z,2.15
2023-01-13T05:09:41.876Z,2.25
2023-01-13T05:12:46.308Z,2.00
2023-01-13T05:15:50.797Z,2.58
2023-01-13T05:18:36.554Z,2.15
2023-01-13T05:21:41.149Z,2.25
2023-01-13T05:24:44.864Z,1.85
2023-01-13T05:27:31.612Z,2.03
2023-01-13T05:30:17.996Z,2.38
2023-01-13T05:33:04.885Z,2.45
2023-01-13T05:35:50.324Z,2.38
2023-01-13T05:38:35.697Z,2.40
2023-01-13T05:41:39.604Z,2.40
2023-01-13T05:44:25.396Z,2.10
2023-01-13T05:47:11.027Z,2.30
2023-01-13T05:49:56.323Z,2.10
2023-01-13T05:52:43.458Z,2.30
2023-01-13T05:55:28.993Z,2.00
2023-01-13T05:58:16.485Z,2.00
2023-01-13T06:01:07.274Z,2.15
2023-01-13T06:03:53.035Z,2.50
2023-01-13T06:06:38.751Z,1.92
2023-01-13T06:09:25.894Z,2.05
2023-01-13T06:12:13.378Z,1.85
2023-01-13T06:14:58.981Z,2.75
2023-01-13T06:17:44.692Z,1.75
2023-01-13T06:20:29.999Z,1.98
2023-01-13T06:23:16.085Z,2.58
2023-01-13T06:26:18.556Z,2.20
2023-01-13T06:31:50.654Z,2.53
2023-01-13T06:34:37.873Z,2.15
2023-01-13T06:37:26.166Z,2.30
2023-01-13T06:40:14.108Z,3.05
2023-01-13T06:43:16.409Z,2.55
2023-01-13T06:48:48.412Z,2.25
2023-01-13T06:51:33.961Z,2.70
2023-01-13T06:54:19.332Z,2.40
2023-01-13T06:57:04.816Z,3.20
2023-01-13T06:59:50.924Z,2.90
2023-01-13T07:02:36.358Z,3.15
2023-01-13T07:05:22.914Z,3.55
2023-01-13T07:08:09.398Z,3.22
2023-01-13T07:10:55.277Z,3.70
2023-01-13T07:13:59.474Z,4.38
2023-01-13T07:16:44.997Z,4.40
2023-01-13T07:19:31.157Z,4.05
2023-01-13T07:22:16.513Z,4.80
2023-01-13T07:25:01.800Z,3.95
2023-01-13T07:27:47.405Z,4.15
2023-01-13T07:30:32.760Z,4.05
2023-01-13T07:33:18.617Z,3.83
2023-01-13T07:36:06.252Z,4.15
2023-01-13T07:38:54.812Z,3.03
2023-01-13T07:41:59.652Z,3.37
2023-01-13T07:44:45.384Z,2.90
2023-01-13T07:47:31.299Z,2.63
2023-01-13T07:50:16.893Z,2.63
2023-01-13T07:53:03.030Z,2.30
2023-01-13T07:55:49.766Z,2.38
2023-01-13T07:58:37.191Z,2.50
2023-01-13T08:01:23.138Z,2.17
2023-01-13T08:04:08.999Z,2.85
2023-01-13T08:06:54.438Z,2.58
2023-01-13T08:09:40.311Z,2.60
2023-01-13T08:12:54.199Z,2.40
2023-01-13T08:15:42.571Z,2.90
2023-01-13T08:18:28.189Z,2.58
2023-01-13T08:21:14.867Z,3.58
2023-01-13T08:24:00.468Z,2.78
2023-01-13T08:26:45.889Z,3.22
2023-01-13T08:29:31.264Z,2.67
2023-01-13T08:32:17.209Z,2.60
2023-01-13T08:35:03.070Z,3.22
2023-01-13T08:37:49.527Z,3.30
2023-01-13T08:40:35.438Z,2.88
2023-01-13T08:43:20.853Z,3.75
2023-01-13T08:46:07.858Z,3.65
2023-01-13T08:48:53.230Z,3.35
2023-01-13T08:51:38.760Z,3.78
2023-01-13T08:54:24.011Z,3.63
2023-01-13T08:57:09.575Z,4.03
2023-01-13T08:59:55.252Z,3.72
2023-01-13T09:02:41.019Z,3.83
2023-01-13T09:05:26.736Z,3.30
2023-01-13T09:08:12.552Z,3.42
2023-01-13T09:10:58.184Z,2.83
2023-01-13T09:13:44.290Z,2.92
2023-01-13T09:16:29.866Z,2.85
2023-01-13T09:19:15.742Z,2.55
2023-01-13T09:22:01.004Z,3.05
2023-01-13T09:24:46.940Z,2.83
2023-01-13T09:27:32.577Z,2.80
2023-01-13T09:30:18.769Z,2.83
2023-01-13T09:33:24.489Z,2.45
2023-01-13T09:36:09.973Z,2.97
2023-01-13T09:38:55.317Z,2.40
2023-01-13T09:42:05.291Z,2.72
2023-01-13T09:45:05.718Z,3.55
2023-01-13T09:48:11.753Z,3.13
2023-01-13T09:51:20.922Z,2.80
2023-01-13T09:54:27.753Z,2.80
2023-01-13T09:57:16.488Z,3.30
2023-01-13T10:00:02.557Z,3.33
2023-01-13T10:03:21.212Z,4.18
2023-01-13T10:06:47.372Z,3.15
2023-01-13T10:09:52.194Z,3.78
2023-01-13T10:13:09.616Z,3.85
2023-01-13T10:16:24.194Z,3.35
2023-01-13T10:19:55.240Z,3.45
2023-01-13T10:23:14.347Z,2.70
2023-01-13T10:26:35.306Z,3.08
2023-01-13T10:29:29.625Z,2.85
2023-01-13T10:32:15.049Z,3.00
2023-01-13T10:35:01.671Z,2.63
2023-01-13T10:37:57.597Z,3.35
2023-01-13T10:40:53.970Z,3.35
2023-01-13T10:43:39.864Z,2.72
2023-01-13T10:46:25.603Z,2.78
2023-01-13T10:49:36.258Z,2.70
2023-01-13T10:52:31.916Z,3.10
2023-01-13T10:55:36.704Z,2.63
2023-01-13T10:58:22.279Z,3.00
2023-01-13T11:01:13.089Z,2.92
2023-01-13T11:03:59.064Z,3.10
2023-01-13T11:06:47.377Z,2.75
2023-01-13T11:09:33.690Z,2.65
2023-01-13T11:12:33.604Z,2.72
2023-01-13T11:15:24.515Z,3.22
2023-01-13T11:18:24.767Z,3.53
2023-01-13T11:21:23.028Z,3.38
2023-01-13T11:24:38.297Z,4.15
2023-01-13T11:27:47.977Z,3.90
2023-01-13T11:30:50.670Z,3.63
2023-01-13T11:36:43.542Z,3.20
2023-01-13T11:40:05.819Z,4.15
2023-01-13T11:43:16.701Z,3.07
2023-01-13T11:46:02.793Z,2.80
2023-01-13T11:48:48.332Z,3.30
2023-01-13T11:51:49.939Z,3.80
2023-01-13T11:55:15.788Z,3.20
2023-01-13T11:58:54.889Z,3.60
2023-01-13T12:02:19.686Z,3.30
2023-01-13T12:05:41.996Z,3.60
2023-01-13T12:09:19.147Z,3.65
2023-01-13T12:12:36.543Z,3.97
2023-01-13T12:15:22.494Z,3.90
2023-01-13T12:18:26.444Z,3.72
2023-01-13T12:21:33.128Z,3.78
2023-01-13T12:24:43.439Z,2.90
2023-01-13T12:27:57.966Z,3.05
2023-01-13T12:30:51.113Z,3.42
2023-01-13T12:33:51.986Z,3.53
2023-01-13T12:37:27.643Z,3.78
2023-01-13T12:40:47.057Z,3.85
2023-01-13T12:43:52.356Z,4.10
2023-01-13T12:46:56.262Z,5.18
2023-01-13T12:49:45.911Z,4.85
2023-01-13T12:52:46.035Z,4.50
2023-01-13T12:55:36.342Z,3.80
2023-01-13T12:58:28.641Z,4.85
2023-01-13T13:01:15.405Z,5.80
2023-01-13T13:04:10.281Z,6.13
2023-01-13T13:07:17.431Z,5.50
2023-01-13T13:10:16.496Z,5.22
2023-01-13T13:13:20.280Z,4.93
2023-01-13T13:16:31.911Z,4.45
2023-01-13T13:19:21.287Z,4.25
2023-01-13T13:22:12.547Z,3.90
2023-01-13T13:24:57.677Z,4.72
2023-01-13T13:27:49.106Z,4.28
2023-01-13T13:30:44.727Z,4.85
2023-01-13T13:33:56.729Z,4.45
2023-01-13T13:37:09.937Z,4.82
2023-01-13T13:40:14.840Z,6.18
2023-01-13T13:43:19.331Z,6.57
2023-01-13T13:49:11.989Z,5.97
2023-01-13T13:52:18.416Z,5.75
2023-01-13T13:55:28.808Z,5.60
2023-01-13T13:58:17.607Z,5.30
2023-01-13T14:01:05.438Z,5.05
2023-01-13T14:04:07.188Z,6.60
2023-01-13T14:07:00.128Z,9.95
2023-01-13T14:09:56.556Z,10.13
2023-01-13T14:12:42.524Z,8.25
2023-01-13T14:15:36.281Z,6.47
2023-01-13T14:18:22.724Z,6.55
2023-01-13T14:21:21.144Z,4.95
2023-01-13T14:24:17.605Z,5.05
2023-01-13T14:27:30.899Z,5.47
2023-01-13T14:30:18.759Z,6.63
2023-01-13T14:33:05.776Z,6.88
2023-01-13T14:36:23.201Z,5.88
2023-01-13T14:39:24.613Z,10.95
2023-01-13T14:42:15.642Z,13.13
2023-01-13T14:45:02.560Z,12.30
2023-01-13T14:47:53.662Z,7.43
2023-01-13T14:50:39.504Z,6.35
2023-01-13T14:53:47.157Z,10.23
2023-01-13T14:56:44.337Z,10.70
2023-01-13T15:00:19.043Z,8.95
2023-01-13T15:03:08.808Z,6.78
2023-01-13T15:05:54.632Z,6.30
2023-01-13T15:08:40.405Z,5.20
2023-01-13T15:11:28.703Z,5.72
2023-01-13T15:14:49.237Z,4.60
2023-01-13T15:17:35.061Z,4.80
2023-01-13T15:20:25.113Z,5.22
2023-01-13T15:23:11.265Z,5.18
2023-01-13T15:25:59.717Z,5.30
2023-01-13T15:28:45.678Z,5.75
2023-01-13T15:31:34.552Z,5.40
2023-01-13T15:34:20.611Z,6.97
2023-01-13T15:37:09.214Z,7.47
2023-01-13T15:39:55.013Z,8.55
2023-01-13T15:42:59.597Z,10.07
2023-01-13T15:46:05.300Z,12.02
2023-01-13T15:48:54.940Z,10.88
2023-01-13T15:51:40.943Z,9.63
2023-01-13T15:54:26.338Z,9.27
2023-01-13T15:57:29.115Z,7.93
2023-01-13T16:03:06.353Z,6.88
2023-01-13T16:05:51.737Z,8.27
2023-01-13T16:08:37.088Z,11.20
2023-01-13T16:11:22.325Z,9.75
2023-01-13T16:14:07.750Z,8.20
2023-01-13T16:16:53.087Z,9.40
2023-01-13T16:19:38.543Z,7.13
2023-01-13T16:22:23.990Z,7.45
2023-01-13T16:25:18.526Z,6.95
2023-01-13T16:28:04.219Z,6.05
2023-01-13T16:30:50.538Z,5.78
2023-01-13T16:33:36.298Z,6.15
2023-01-13T16:36:22.555Z,6.03
2023-01-13T16:39:21.726Z,6.72
2023-01-13T16:42:07.417Z,8.20
2023-01-13T16:44:52.940Z,6.97
2023-01-13T16:47:39.143Z,7.60
2023-01-13T16:50:41.135Z,7.57
2023-01-13T16:53:27.802Z,7.32
2023-01-13T16:56:29.134Z,6.18
2023-01-13T16:59:14.895Z,6.50
2023-01-13T17:02:02.086Z,7.40
2023-01-13T17:04:47.814Z,8.90
2023-01-13T17:07:33.601Z,8.32
2023-01-13T17:10:24.032Z,9.02
2023-01-13T17:13:15.936Z,10.13
2023-01-13T17:18:48.446Z,9.25
2023-01-13T17:21:34.081Z,9.48
2023-01-13T17:24:20.026Z,8.93
2023-01-13T17:27:05.541Z,8.35
2023-01-13T17:29:50.924Z,8.32
2023-01-13T17:32:36.544Z,9.30
2023-01-13T17:35:24.601Z,7.80
2023-01-13T17:38:10.242Z,8.50
2023-01-13T17:41:00.734Z,6.68
2023-01-13T17:43:47.934Z,7.25
2023-01-13T17:46:33.686Z,8.27
2023-01-13T17:49:21.745Z,6.63
2023-01-13T17:52:07.690Z,7.38
2023-01-13T17:54:53.630Z,7.50
2023-01-13T17:57:39.500Z,6.28
2023-01-13T18:00:24.854Z,7.63
2023-01-13T18:03:11.456Z,6.47
2023-01-13T18:06:04.227Z,6.57
2023-01-13T18:08:51.851Z,6.70
2023-01-13T18:11:37.698Z,6.05
2023-01-13T18:14:23.360Z,6.85
2023-01-13T18:17:08.765Z,7.03
2023-01-13T18:20:13.203Z,6.07
2023-01-13T18:23:16.905Z,6.93
2023-01-13T18:26:38.411Z,6.43
2023-01-13T18:29:24.029Z,7.07
2023-01-13T18:32:10.112Z,7.43
2023-01-13T18:35:05.016Z,7.20
2023-01-13T18:37:52.243Z,7.55
2023-01-13T18:40:37.700Z,8.18
2023-01-13T18:43:23.118Z,8.13
2023-01-13T18:46:08.659Z,9.23
2023-01-13T18:48:54.450Z,9.10
2023-01-13T18:51:39.839Z,9.52
2023-01-13T18:54:25.749Z,9.75
2023-01-13T18:57:10.950Z,9.10
2023-01-13T18:59:59.269Z,9.20
2023-01-13T19:02:47.253Z,8.35
2023-01-13T19:05:34.689Z,7.63
2023-01-13T19:08:20.305Z,7.72
2023-01-13T19:11:07.258Z,7.35
2023-01-13T19:13:53.206Z,5.53
2023-01-13T19:16:39.211Z,6.70
2023-01-13T19:19:24.647Z,5.80
2023-01-13T19:22:12.474Z,5.68
2023-01-13T19:24:58.948Z,5.82
2023-01-13T19:27:44.629Z,5.43
2023-01-13T19:30:30.002Z,5.10
2023-01-13T19:33:15.501Z,5.22
2023-01-13T19:36:03.311Z,6.10
2023-01-13T19:38:48.902Z,5.88
2023-01-13T19:41:53.079Z,7.07
2023-01-13T19:44:57.538Z,5.82
2023-01-13T19:47:45.341Z,5.50
2023-01-13T19:50:31.243Z,5.35
2023-01-13T19:53:17.955Z,4.88
2023-01-13T19:56:06.091Z,5.40
2023-01-13T19:58:51.646Z,5.50
2023-01-13T20:01:40.651Z,5.95
2023-01-13T20:04:37.672Z,6.00
2023-01-13T20:07:26.366Z,6.70
2023-01-13T20:10:13.356Z,6.70
2023-01-13T20:12:59.417Z,6.80
2023-01-13T20:15:44.811Z,5.63
2023-01-13T20:18:35.733Z,5.40
2023-01-13T20:21:21.142Z,6.38
2023-01-13T20:24:07.749Z,5.90
2023-01-13T20:26:54.582Z,5.00
2023-01-13T20:29:40.336Z,5.35
2023-01-13T20:32:25.790Z,6.00
2023-01-13T20:35:11.837Z,5.90
2023-01-13T20:37:57.283Z,4.97
2023-01-13T20:40:42.600Z,5.30
2023-01-13T20:43:28.081Z,5.30
2023-01-13T20:46:13.780Z,5.85
2023-01-13T20:48:59.608Z,5.35
2023-01-13T20:51:45.100Z,5.18
2023-01-13T20:54:30.661Z,5.47
2023-01-13T20:57:16.265Z,4.90
2023-01-13T21:00:02.836Z,6.15
2023-01-13T21:02:48.366Z,6.22
2023-01-13T21:05:36.340Z,7.38
2023-01-13T21:08:22.124Z,6.65
2023-01-13T21:11:10.491Z,6.25
2023-01-13T21:14:14.293Z,5.57
2023-01-13T21:17:00.438Z,5.35
2023-01-13T21:19:46.220Z,4.60
2023-01-13T21:22:31.724Z,4.40
2023-01-13T21:25:19.058Z,4.53
2023-01-13T21:28:10.178Z,3.75
2023-01-13T21:30:55.622Z,4.68
2023-01-13T21:33:41.087Z,4.68
2023-01-13T21:36:28.413Z,4.78
2023-01-13T21:39:15.975Z,4.45
2023-01-13T21:42:20.640Z,4.60
2023-01-13T21:45:25.359Z,4.50
2023-01-13T21:48:11.141Z,4.43
2023-01-13T21:51:01.208Z,4.25
2023-01-13T21:53:46.745Z,4.38
2023-01-13T21:56:32.253Z,4.90
2023-01-13T21:59:17.727Z,4.63
2023-01-13T22:02:25.013Z,4.80
2023-01-13T22:05:13.272Z,4.78
2023-01-13T22:07:58.769Z,5.03
2023-01-13T22:11:10.592Z,4.75
2023-01-13T22:14:13.405Z,4.72
2023-01-13T22:17:01.062Z,4.80
2023-01-13T22:19:53.845Z,4.50
2023-01-13T22:25:25.531Z,4.30
2023-01-13T22:28:13.878Z,4.75
2023-01-13T22:31:06.919Z,4.80
2023-01-13T22:33:55.210Z,5.10
2023-01-13T22:36:40.989Z,4.70
2023-01-13T22:39:26.882Z,4.22
2023-01-13T22:42:12.528Z,4.07
2023-01-13T22:44:58.124Z,4.43
2023-01-13T22:47:43.549Z,4.53
2023-01-13T22:50:29.256Z,4.40
2023-01-13T22:53:14.931Z,4.57
2023-01-13T22:56:01.095Z,4.28
2023-01-13T22:58:46.599Z,4.82
2023-01-13T23:01:35.047Z,4.85
2023-01-13T23:04:20.793Z,5.63
2023-01-13T23:07:07.967Z,6.20
2023-01-13T23:09:53.743Z,5.32
2023-01-13T23:12:39.093Z,4.93
2023-01-13T23:15:25.112Z,5.07
2023-01-13T23:18:10.393Z,5.38
2023-01-13T23:20:55.842Z,5.15
2023-01-13T23:23:41.434Z,5.00
2023-01-13T23:26:28.280Z,4.00
2023-01-13T23:29:13.858Z,5.20
2023-01-13T23:31:59.188Z,5.28
2023-01-13T23:34:44.505Z,4.50
2023-01-13T23:37:29.971Z,3.90
2023-01-13T23:40:15.355Z,3.95
2023-01-13T23:43:01.011Z,3.92
2023-01-13T23:45:47.377Z,4.15
2023-01-13T23:48:33.684Z,3.60
2023-01-13T23:51:21.330Z,3.58
2023-01-13T23:54:07.059Z,3.38
2023-01-13T23:56:52.709Z,3.22
2023-01-13T23:59:38.223Z,3.83
